Time;durP1;ratioP1;P1;durP2;ratioP2;P2;SDS_P1;SDS_P2;PMS_P1;PMS_P2;Temp;Humidity;BMP_temperature;BMP_pressure;BME280_temperature;BME280_humidity;BME280_pressure;Samples;Min_cycle;Max_cycle;Signal;HPM_P1;HPM_P2
2024/01/01 00:01:17;;;;;;;18.52;12.00;;;8.30;99.90;;;;;;5020334;28;20412;-78
2024/01/01 00:03:45;;;;;;;21.33;14.43;;;8.30;99.90;;;;;;5029443;28;20115;-79
2024/01/01 00:06:11;;;;;;;21.75;15.77;;;8.30;99.90;;;;;;5023031;28;20045;-79
2024/01/01 00:08:36;;;;;;;21.08;15.40;;;8.30;99.90;;;;;;5045132;28;20045;-79
2024/01/01 00:11:02;;;;;;;24.83;16.83;;;8.30;99.90;;;;;;5030747;28;20053;-79
2024/01/01 00:13:27;;;;;;;21.63;18.58;;;8.40;99.90;;;;;;5027827;28;20116;-78
2024/01/01 00:15:53;;;;;;;24.33;18.58;;;8.40;99.90;;;;;;5020695;28;20050;-79
2024/01/01 00:18:20;;;;;;;24.88;18.38;;;8.40;99.90;;;;;;5023659;28;20473;-79
2024/01/01 00:20:45;;;;;;;23.40;17.63;;;8.40;99.90;;;;;;5029675;28;20099;-79
2024/01/01 00:23:11;;;;;;;23.08;18.52;;;8.40;99.90;;;;;;5027345;28;20309;-79
2024/01/01 00:25:37;;;;;;;22.15;16.92;;;8.50;99.90;;;;;;5030389;28;20129;-80
2024/01/01 00:28:06;;;;;;;23.10;16.33;;;8.50;99.90;;;;;;5027828;28;20052;-80
2024/01/01 00:30:31;;;;;;;21.60;15.93;;;8.50;99.90;;;;;;5026506;28;20049;-80
2024/01/01 00:32:57;;;;;;;26.55;15.25;;;8.50;99.90;;;;;;5027146;28;20123;-80
2024/01/01 00:35:23;;;;;;;23.38;15.50;;;8.50;99.90;;;;;;5036613;28;20401;-80
2024/01/01 00:37:48;;;;;;;20.98;15.90;;;8.50;99.90;;;;;;5028613;28;20053;-80
2024/01/01 00:40:15;;;;;;;23.35;17.02;;;8.60;99.90;;;;;;5043644;28;20045;-77
2024/01/01 00:42:42;;;;;;;22.55;16.05;;;8.50;99.90;;;;;;5043249;28;20049;-78
2024/01/01 00:45:09;;;;;;;23.08;16.80;;;8.50;99.90;;;;;;5025608;28;20117;-77
2024/01/01 00:47:35;;;;;;;26.60;16.90;;;8.50;99.90;;;;;;5029975;28;20500;-79
2024/01/01 00:50:01;;;;;;;25.75;17.23;;;8.60;99.90;;;;;;5045454;28;20084;-80
2024/01/01 00:52:26;;;;;;;24.92;18.67;;;8.60;99.90;;;;;;5027324;28;20045;-80
2024/01/01 00:54:52;;;;;;;26.63;17.35;;;8.60;99.90;;;;;;5026372;28;20045;-80
2024/01/01 00:57:18;;;;;;;23.38;16.77;;;8.60;99.90;;;;;;5037143;28;20033;-80
2024/01/01 00:59:44;;;;;;;22.77;15.98;;;8.60;99.90;;;;;;5027253;28;20114;-80
2024/01/01 01:02:09;;;;;;;23.77;15.82;;;8.60;99.90;;;;;;5027869;28;20049;-80
2024/01/01 01:04:35;;;;;;;23.67;15.05;;;8.60;99.90;;;;;;5026837;28;20092;-80
2024/01/01 01:07:01;;;;;;;24.25;14.68;;;8.60;99.90;;;;;;5021192;28;20071;-80
2024/01/01 01:09:26;;;;;;;24.83;14.43;;;8.60;99.90;;;;;;5027717;28;20088;-80
2024/01/01 01:11:52;;;;;;;20.42;14.75;;;8.60;99.90;;;;;;5026435;28;20041;-80
2024/01/01 01:14:18;;;;;;;20.95;14.20;;;8.60;99.90;;;;;;5026636;28;20049;-80
2024/01/01 01:16:43;;;;;;;23.00;15.07;;;8.60;99.90;;;;;;5058783;28;20048;-80
2024/01/01 01:19:09;;;;;;;22.75;9.13;;;8.60;99.90;;;;;;5026769;28;20167;-80
2024/01/01 01:21:35;;;;;;;22.50;14.73;;;8.50;99.90;;;;;;5027202;28;20731;-80
2024/01/01 01:24:00;;;;;;;23.42;15.75;;;8.50;99.90;;;;;;5025886;28;20656;-78
2024/01/01 01:26:26;;;;;;;21.23;14.73;;;8.60;99.90;;;;;;5026964;28;20141;-77
2024/01/01 01:28:51;;;;;;;20.58;14.73;;;8.60;99.90;;;;;;5029192;28;20049;-77
2024/01/01 01:31:17;;;;;;;23.42;14.90;;;8.50;99.90;;;;;;5027368;28;20037;-78
2024/01/01 01:33:43;;;;;;;23.95;15.50;;;8.60;99.90;;;;;;5023097;28;20049;-78
2024/01/01 01:36:13;;;;;;;21.92;14.15;;;8.60;99.90;;;;;;5021555;28;20497;-77
2024/01/01 01:38:39;;;;;;;21.55;14.52;;;8.50;99.90;;;;;;5025745;28;20141;-77
2024/01/01 01:41:05;;;;;;;23.48;14.02;;;8.60;99.90;;;;;;5019548;28;20186;-78
2024/01/01 01:43:30;;;;;;;25.77;14.20;;;8.60;99.90;;;;;;5027226;28;20069;-77
2024/01/01 01:45:58;;;;;;;22.63;13.55;;;8.60;99.90;;;;;;5030061;28;20041;-78
2024/01/01 01:48:24;;;;;;;24.98;14.02;;;8.60;99.90;;;;;;5031073;28;20052;-77
2024/01/01 01:50:51;;;;;;;21.95;13.68;;;8.60;99.90;;;;;;5033285;28;20524;-79
2024/01/01 01:53:24;;;;;;;23.58;13.73;;;8.60;99.90;;;;;;5030198;28;20980;-79
2024/01/01 01:55:52;;;;;;;22.15;14.95;;;8.60;99.90;;;;;;5022662;28;20037;-79
2024/01/01 01:58:18;;;;;;;20.38;14.50;;;8.60;99.90;;;;;;5027926;28;20045;-79
2024/01/01 02:00:47;;;;;;;22.98;15.55;;;8.60;99.90;;;;;;5025647;28;20067;-79
2024/01/01 02:03:14;;;;;;;25.50;15.13;;;8.60;99.90;;;;;;5028755;28;20072;-79
2024/01/01 02:05:40;;;;;;;22.08;14.88;;;8.50;99.90;;;;;;5019784;28;20111;-80
2024/01/01 02:08:07;;;;;;;24.23;16.77;;;8.40;99.90;;;;;;5032641;28;20041;-80
2024/01/01 02:10:33;;;;;;;27.20;18.23;;;8.60;99.90;;;;;;5022712;28;20044;-79
2024/01/01 02:13:02;;;;;;;25.95;16.83;;;8.50;99.90;;;;;;5028622;28;20049;-80
2024/01/01 02:15:27;;;;;;;28.13;18.00;;;8.50;99.90;;;;;;5027802;28;20046;-79
2024/01/01 02:17:53;;;;;;;22.80;16.60;;;8.50;99.90;;;;;;5031396;28;20067;-79
2024/01/01 02:20:19;;;;;;;25.33;17.38;;;8.50;99.90;;;;;;5029633;28;20233;-79
2024/01/01 02:22:44;;;;;;;25.67;18.27;;;8.60;99.90;;;;;;5037562;28;20139;-79
2024/01/01 02:25:12;;;;;;;24.58;17.75;;;8.50;99.90;;;;;;5032163;28;20029;-79
2024/01/01 02:27:38;;;;;;;25.38;18.23;;;8.60;99.90;;;;;;5029209;28;20060;-79
2024/01/01 02:30:05;;;;;;;24.75;17.98;;;8.50;99.90;;;;;;5028962;28;20555;-79
2024/01/01 02:32:30;;;;;;;30.40;19.42;;;8.50;99.90;;;;;;5028765;28;20045;-79
2024/01/01 02:34:56;;;;;;;27.13;19.08;;;8.60;99.90;;;;;;5039474;28;20077;-79
2024/01/01 02:37:21;;;;;;;19.88;16.00;;;8.60;99.90;;;;;;5026418;28;20084;-79
2024/01/01 02:39:47;;;;;;;23.63;16.42;;;8.50;99.90;;;;;;5022265;28;20137;-79
2024/01/01 02:42:13;;;;;;;25.50;15.68;;;8.60;99.90;;;;;;5027744;28;20505;-79
2024/01/01 02:44:38;;;;;;;20.40;14.90;;;8.50;99.90;;;;;;5027800;28;20401;-79
2024/01/01 02:47:04;;;;;;;23.77;15.60;;;8.50;99.90;;;;;;5030538;28;20090;-80
2024/01/01 02:49:30;;;;;;;23.27;16.63;;;8.50;99.90;;;;;;5026292;28;20481;-79
2024/01/01 02:51:56;;;;;;;27.30;18.17;;;8.50;99.90;;;;;;5021441;28;20160;-80
2024/01/01 02:54:22;;;;;;;24.25;16.02;;;8.50;99.90;;;;;;5031416;28;20145;-80
2024/01/01 02:56:47;;;;;;;18.30;12.88;;;8.50;99.90;;;;;;5022940;28;20128;-80
2024/01/01 02:59:13;;;;;;;18.90;11.85;;;8.50;99.90;;;;;;5028341;28;20029;-79
2024/01/01 03:01:39;;;;;;;16.48;10.85;;;8.50;99.90;;;;;;5027007;28;20058;-79
2024/01/01 03:04:04;;;;;;;14.40;9.07;;;8.50;99.90;;;;;;5025794;28;20291;-79
2024/01/01 03:06:30;;;;;;;10.80;5.50;;;8.50;99.90;;;;;;5028594;28;20132;-79
2024/01/01 03:08:56;;;;;;;11.57;6.32;;;8.50;99.90;;;;;;5024439;28;20077;-79
2024/01/01 03:11:21;;;;;;;12.15;5.93;;;8.50;99.90;;;;;;5030767;28;20126;-79
2024/01/01 03:13:47;;;;;;;10.80;6.45;;;8.40;99.90;;;;;;5026213;28;20049;-79
2024/01/01 03:16:13;;;;;;;12.02;6.38;;;8.50;99.90;;;;;;5028352;28;20408;-79
2024/01/01 03:18:39;;;;;;;10.07;5.05;;;8.40;99.90;;;;;;5027084;28;20069;-79
2024/01/01 03:21:05;;;;;;;8.77;3.97;;;8.40;99.90;;;;;;5026022;28;20370;-79
2024/01/01 03:23:30;;;;;;;9.98;4.32;;;8.40;99.90;;;;;;5028032;28;20050;-79
2024/01/01 03:25:56;;;;;;;8.75;3.83;;;8.40;99.90;;;;;;5043170;28;20124;-79
2024/01/01 03:28:22;;;;;;;9.43;4.07;;;8.40;99.90;;;;;;5030175;28;20064;-79
2024/01/01 03:30:47;;;;;;;7.72;3.45;;;8.30;99.90;;;;;;5028238;28;20059;-79
2024/01/01 03:33:13;;;;;;;9.23;3.50;;;8.30;99.90;;;;;;5026044;28;20052;-79
2024/01/01 03:35:38;;;;;;;10.05;3.97;;;8.30;99.90;;;;;;5024999;28;20053;-79
2024/01/01 03:38:04;;;;;;;8.70;3.38;;;8.30;99.90;;;;;;5026242;28;20064;-79
2024/01/01 03:40:33;;;;;;;7.38;3.25;;;8.20;99.90;;;;;;5027058;28;20140;-79
2024/01/01 03:42:59;;;;;;;8.55;3.70;;;8.20;99.90;;;;;;5057445;28;20049;-79
2024/01/01 03:45:24;;;;;;;9.48;3.70;;;8.20;99.90;;;;;;5028275;28;20125;-79
2024/01/01 03:47:51;;;;;;;7.68;3.83;;;8.20;99.90;;;;;;5022065;28;20120;-79
2024/01/01 03:50:19;;;;;;;8.13;3.80;;;8.10;99.90;;;;;;5032976;28;20100;-79
2024/01/01 03:52:45;;;;;;;9.32;3.75;;;8.10;99.90;;;;;;5030056;28;20425;-79
2024/01/01 03:55:11;;;;;;;7.95;3.40;;;8.10;99.90;;;;;;5028538;28;20044;-79
2024/01/01 03:57:36;;;;;;;9.55;3.90;;;8.10;99.90;;;;;;5030370;28;20572;-79
2024/01/01 04:00:03;;;;;;;10.35;3.45;;;8.00;99.90;;;;;;5061898;28;20046;-80
2024/01/01 04:02:29;;;;;;;6.63;3.00;;;8.00;99.90;;;;;;5023678;28;20052;-79
2024/01/01 04:04:56;;;;;;;8.30;3.13;;;8.00;99.90;;;;;;5031817;28;20132;-80
2024/01/01 04:07:21;;;;;;;8.10;3.20;;;8.00;99.90;;;;;;5015438;28;20048;-79
2024/01/01 04:09:47;;;;;;;8.02;2.92;;;8.00;99.90;;;;;;5027524;28;20477;-80
2024/01/01 04:12:13;;;;;;;10.23;3.25;;;7.90;99.90;;;;;;5020283;28;20527;-80
2024/01/01 04:14:39;;;;;;;7.80;3.08;;;8.00;99.90;;;;;;5028280;28;20041;-80
2024/01/01 04:17:04;;;;;;;9.50;3.47;;;7.90;99.90;;;;;;5027788;28;20056;-80
2024/01/01 04:19:30;;;;;;;7.97;3.05;;;7.90;99.90;;;;;;5025374;28;20478;-80
2024/01/01 04:21:56;;;;;;;8.45;2.80;;;7.80;99.90;;;;;;5029917;28;20125;-80
2024/01/01 04:24:22;;;;;;;7.80;3.00;;;7.90;99.90;;;;;;5026244;28;20060;-80
2024/01/01 04:26:47;;;;;;;10.05;3.30;;;7.90;99.90;;;;;;5028919;28;20041;-80
2024/01/01 04:29:16;;;;;;;6.45;2.55;;;7.90;99.90;;;;;;5027052;28;20037;-80
2024/01/01 04:31:41;;;;;;;7.57;3.08;;;7.90;99.90;;;;;;5040023;28;20536;-80
2024/01/01 04:34:07;;;;;;;7.32;2.70;;;7.80;99.90;;;;;;5026512;28;20037;-80
2024/01/01 04:36:33;;;;;;;6.45;2.90;;;7.90;99.90;;;;;;5058404;28;20056;-80
2024/01/01 04:38:59;;;;;;;7.57;2.80;;;7.80;99.90;;;;;;5027868;28;20059;-79
2024/01/01 04:41:25;;;;;;;8.60;3.33;;;7.80;99.90;;;;;;5020452;28;20141;-80
2024/01/01 04:43:51;;;;;;;11.13;3.17;;;7.80;99.90;;;;;;5026046;28;20125;-80
2024/01/01 04:46:16;;;;;;;13.15;3.25;;;7.80;99.90;;;;;;5029545;28;20377;-79
2024/01/01 04:48:42;;;;;;;10.85;3.40;;;7.80;99.90;;;;;;5024107;28;20081;-79
2024/01/01 04:51:08;;;;;;;9.63;3.17;;;7.80;99.90;;;;;;5022977;28;20041;-79
2024/01/01 04:53:33;;;;;;;12.57;3.25;;;7.80;99.90;;;;;;5060586;28;20044;-80
2024/01/01 04:55:59;;;;;;;11.57;3.10;;;7.80;99.90;;;;;;5025726;28;20116;-79
2024/01/01 04:58:25;;;;;;;10.98;3.25;;;7.80;99.90;;;;;;5059252;28;20045;-80
2024/01/01 05:00:50;;;;;;;8.90;3.30;;;7.80;99.90;;;;;;5025214;28;20429;-79
2024/01/01 05:03:16;;;;;;;9.48;3.30;;;7.80;99.90;;;;;;5028591;28;20409;-79
2024/01/01 05:05:41;;;;;;;9.35;3.35;;;7.80;99.90;;;;;;5019587;28;20041;-79
2024/01/01 05:08:07;;;;;;;9.80;2.83;;;7.70;99.90;;;;;;5018936;28;20092;-79
2024/01/01 05:10:32;;;;;;;12.02;3.13;;;7.90;99.90;;;;;;5058059;28;20053;-79
2024/01/01 05:12:58;;;;;;;10.70;3.55;;;7.80;99.90;;;;;;5056503;28;20053;-79
2024/01/01 05:15:24;;;;;;;9.10;3.03;;;7.90;99.90;;;;;;5023856;28;20048;-79
2024/01/01 05:17:49;;;;;;;8.93;2.80;;;7.90;99.90;;;;;;5027845;28;20678;-79
2024/01/01 05:20:15;;;;;;;9.15;3.00;;;7.80;99.90;;;;;;5017201;28;20049;-79
2024/01/01 05:22:41;;;;;;;13.80;3.60;;;7.80;99.90;;;;;;5028598;28;20081;-79
2024/01/01 05:25:07;;;;;;;16.08;3.78;;;7.90;99.90;;;;;;5019487;28;20125;-79
2024/01/01 05:27:32;;;;;;;16.05;3.20;;;7.90;99.90;;;;;;5039189;28;20097;-79
2024/01/01 05:29:58;;;;;;;14.95;3.60;;;7.90;99.90;;;;;;5026327;28;20449;-79
2024/01/01 05:32:24;;;;;;;10.05;3.63;;;7.80;99.90;;;;;;5026167;28;20709;-79
2024/01/01 05:34:50;;;;;;;12.25;3.72;;;7.80;99.90;;;;;;5024153;28;20052;-79
2024/01/01 05:37:15;;;;;;;9.63;3.05;;;7.80;99.90;;;;;;5032423;28;20045;-79
2024/01/01 05:39:41;;;;;;;13.50;3.72;;;7.80;99.90;;;;;;5041997;28;20452;-79
2024/01/01 05:42:07;;;;;;;11.00;3.22;;;7.80;99.90;;;;;;5026104;28;20041;-79
2024/01/01 05:44:32;;;;;;;12.07;3.58;;;7.80;99.90;;;;;;5026337;28;20046;-79
2024/01/01 05:46:58;;;;;;;13.75;3.20;;;7.70;99.90;;;;;;5027690;28;20042;-79
2024/01/01 05:49:23;;;;;;;13.88;3.45;;;7.80;99.90;;;;;;5028312;28;20125;-79
2024/01/01 05:51:49;;;;;;;12.57;3.50;;;7.70;99.90;;;;;;5022583;28;20131;-79
2024/01/01 05:54:15;;;;;;;12.90;3.63;;;7.70;99.90;;;;;;5027821;28;20572;-79
2024/01/01 05:56:41;;;;;;;14.73;4.15;;;7.70;99.90;;;;;;5054014;28;20054;-79
2024/01/01 05:59:06;;;;;;;13.90;4.50;;;7.70;99.90;;;;;;5025884;28;20034;-79
2024/01/01 06:01:32;;;;;;;12.90;3.47;;;7.70;99.90;;;;;;5020666;28;20072;-79
2024/01/01 06:03:58;;;;;;;14.13;4.10;;;7.70;99.90;;;;;;5023390;28;20084;-79
2024/01/01 06:06:24;;;;;;;14.32;3.90;;;7.70;99.90;;;;;;5028682;28;20045;-79
2024/01/01 06:08:50;;;;;;;13.33;3.07;;;7.70;99.90;;;;;;5041642;28;20041;-79
2024/01/01 06:11:19;;;;;;;13.02;3.50;;;7.70;99.90;;;;;;5026909;28;20049;-79
2024/01/01 06:13:45;;;;;;;16.13;3.85;;;7.60;99.90;;;;;;5059614;28;20041;-79
2024/01/01 06:16:13;;;;;;;15.82;3.80;;;7.60;99.90;;;;;;5013267;28;20034;-79
2024/01/01 06:18:38;;;;;;;;;;;7.70;99.90;;;;;;5025316;28;20053;-79
2024/01/01 06:21:04;;;;;;;13.00;3.42;;;7.70;99.90;;;;;;5024106;28;20392;-79
2024/01/01 06:23:30;;;;;;;12.77;1.90;;;7.60;99.90;;;;;;5020750;28;20048;-78
2024/01/01 06:25:56;;;;;;;14.93;3.85;;;7.60;99.90;;;;;;5027323;28;20073;-79
2024/01/01 06:28:22;;;;;;;15.10;4.00;;;7.50;99.90;;;;;;5020115;28;20073;-79
2024/01/01 06:30:47;;;;;;;14.63;3.85;;;7.60;99.90;;;;;;5024856;28;20096;-79
2024/01/01 06:33:14;;;;;;;13.82;3.72;;;7.60;99.90;;;;;;5024007;28;20067;-79
2024/01/01 06:35:39;;;;;;;18.83;3.72;;;7.60;99.90;;;;;;5026857;28;20131;-79
2024/01/01 06:38:05;;;;;;;14.82;3.30;;;7.60;99.90;;;;;;5027677;28;20819;-79
2024/01/01 06:40:31;;;;;;;14.90;3.70;;;7.60;99.90;;;;;;5062255;28;20132;-79
2024/01/01 06:42:56;;;;;;;13.68;3.67;;;7.60;99.90;;;;;;5028156;28;20046;-79
2024/01/01 06:45:22;;;;;;;12.68;3.05;;;7.60;99.90;;;;;;5030400;28;20040;-79
2024/01/01 06:47:48;;;;;;;12.00;3.45;;;7.60;99.90;;;;;;5023897;28;20041;-79
2024/01/01 06:50:14;;;;;;;13.93;3.70;;;7.70;99.90;;;;;;5024952;28;20358;-79
2024/01/01 06:52:40;;;;;;;12.60;3.53;;;7.60;99.90;;;;;;5028306;28;20045;-79
2024/01/01 06:55:06;;;;;;;15.00;4.20;;;7.60;99.90;;;;;;5029527;28;20099;-79
2024/01/01 06:57:32;;;;;;;13.15;3.88;;;7.60;99.90;;;;;;5059135;28;20069;-79
2024/01/01 06:59:58;;;;;;;13.57;3.53;;;7.70;99.90;;;;;;5028152;28;20037;-78
2024/01/01 07:02:25;;;;;;;14.13;4.38;;;7.60;99.90;;;;;;5031207;28;20057;-79
2024/01/01 07:04:51;;;;;;;13.60;3.95;;;7.60;99.90;;;;;;5031383;28;20049;-79
2024/01/01 07:07:17;;;;;;;14.88;3.78;;;7.60;99.90;;;;;;5059916;28;20053;-79
2024/01/01 07:09:43;;;;;;;13.38;3.65;;;7.70;99.90;;;;;;5032148;28;20052;-78
2024/01/01 07:12:27;;;;;;;13.98;3.97;;;7.60;99.90;;;;;;5026905;28;20041;-79
2024/01/01 07:14:53;;;;;;;11.80;3.45;;;7.60;99.90;;;;;;5028278;28;20115;-78
2024/01/01 07:17:19;;;;;;;11.93;3.35;;;7.50;99.90;;;;;;5029633;28;20111;-78
2024/01/01 07:19:45;;;;;;;13.68;3.40;;;7.60;99.90;;;;;;5025809;28;20049;-79
2024/01/01 07:22:11;;;;;;;12.82;3.30;;;7.60;99.90;;;;;;5029637;28;20052;-79
2024/01/01 07:24:37;;;;;;;12.95;3.30;;;7.60;99.90;;;;;;5029482;28;20037;-78
2024/01/01 07:27:04;;;;;;;12.82;3.45;;;7.60;99.90;;;;;;5022538;28;20045;-79
2024/01/01 07:29:30;;;;;;;12.20;3.30;;;7.60;99.90;;;;;;5026355;28;20052;-78
2024/01/01 07:31:56;;;;;;;10.73;3.42;;;7.50;99.90;;;;;;5028135;28;20107;-79
2024/01/01 07:34:22;;;;;;;15.30;3.95;;;7.50;99.90;;;;;;5044125;28;20038;-78
2024/01/01 07:36:48;;;;;;;13.77;3.60;;;7.60;99.90;;;;;;5029249;28;20520;-79
2024/01/01 07:39:19;;;;;;;12.07;3.38;;;7.50;99.90;;;;;;5022863;28;20042;-79
2024/01/01 07:41:45;;;;;;;11.45;2.80;;;7.60;99.90;;;;;;5029164;28;20485;-78
2024/01/01 07:44:11;;;;;;;12.57;3.58;;;7.50;99.90;;;;;;5026119;28;20041;-79
2024/01/01 07:46:37;;;;;;;10.52;3.70;;;7.60;99.90;;;;;;5038366;28;20045;-78
2024/01/01 07:49:05;;;;;;;13.98;3.92;;;7.60;99.90;;;;;;5025286;28;20045;-79
2024/01/01 07:51:31;;;;;;;12.82;3.25;;;7.60;99.90;;;;;;5061821;28;20081;-79
2024/01/01 07:53:57;;;;;;;13.65;3.42;;;7.60;99.90;;;;;;5026558;28;20087;-79
2024/01/01 07:56:22;;;;;;;13.68;3.67;;;7.50;99.90;;;;;;5022410;28;20044;-79
2024/01/01 07:58:49;;;;;;;13.40;3.80;;;7.50;99.90;;;;;;5024750;28;20564;-82
2024/01/01 08:01:18;;;;;;;11.52;3.65;;;7.50;99.90;;;;;;5026424;28;20517;-78
2024/01/01 08:03:44;;;;;;;13.00;3.90;;;7.60;99.90;;;;;;5019589;28;20067;-77
2024/01/01 08:06:10;;;;;;;14.38;4.25;;;7.50;99.90;;;;;;5021284;28;20041;-77
2024/01/01 08:08:35;;;;;;;13.23;4.03;;;7.50;99.90;;;;;;5036079;28;20501;-77
2024/01/01 08:11:01;;;;;;;17.98;4.75;;;7.50;99.90;;;;;;5021903;28;20378;-78
2024/01/01 08:13:27;;;;;;;16.00;4.13;;;7.50;99.90;;;;;;5019726;28;20131;-75
2024/01/01 08:15:53;;;;;;;9.30;2.60;;;7.60;99.90;;;;;;5019491;28;20037;-75
2024/01/01 08:18:18;;;;;;;13.80;4.40;;;7.50;99.90;;;;;;5018003;28;20045;-75
2024/01/01 08:20:44;;;;;;;14.65;4.38;;;7.50;99.90;;;;;;5037945;28;20049;-75
2024/01/01 08:23:10;;;;;;;14.60;4.50;;;7.60;99.90;;;;;;5022172;28;20818;-75
2024/01/01 08:25:36;;;;;;;14.07;4.25;;;7.60;99.90;;;;;;5024933;28;20045;-74
2024/01/01 08:28:02;;;;;;;17.23;4.70;;;7.60;99.90;;;;;;5026807;28;20033;-75
2024/01/01 08:30:28;;;;;;;14.13;4.13;;;7.60;99.90;;;;;;5034851;28;20687;-75
2024/01/01 08:32:54;;;;;;;12.45;3.58;;;7.60;99.90;;;;;;5016794;28;20068;-75
2024/01/01 08:35:20;;;;;;;12.10;3.97;;;7.60;99.90;;;;;;5026281;28;20047;-75
2024/01/01 08:37:47;;;;;;;14.73;4.03;;;7.60;99.90;;;;;;5027578;28;20072;-75
2024/01/01 08:40:13;;;;;;;12.10;3.25;;;7.70;99.90;;;;;;5016960;28;20041;-75
2024/01/01 08:42:39;;;;;;;12.93;3.85;;;7.60;99.90;;;;;;5016908;28;20520;-75
2024/01/01 08:45:05;;;;;;;12.90;3.95;;;7.60;99.90;;;;;;5028260;28;20044;-75
2024/01/01 08:47:31;;;;;;;12.40;3.65;;;7.70;99.90;;;;;;5020029;28;20037;-75
2024/01/01 08:49:56;;;;;;;12.35;3.80;;;7.60;99.90;;;;;;5032308;28;20063;-75
2024/01/01 08:52:22;;;;;;;12.73;3.78;;;7.70;99.90;;;;;;5022410;28;20038;-77
2024/01/01 08:54:48;;;;;;;10.88;3.35;;;7.70;99.90;;;;;;5027695;28;20103;-77
2024/01/01 08:57:14;;;;;;;9.48;3.25;;;7.70;99.90;;;;;;5029576;28;20036;-77
2024/01/01 08:59:40;;;;;;;12.00;3.93;;;7.70;99.90;;;;;;5028124;28;20531;-80
2024/01/01 09:02:06;;;;;;;9.32;3.25;;;7.80;99.90;;;;;;5029957;28;20170;-77
2024/01/01 09:04:33;;;;;;;9.82;3.42;;;7.70;99.90;;;;;;5027420;28;20540;-80
2024/01/01 09:07:00;;;;;;;9.02;3.00;;;7.70;99.90;;;;;;5031602;28;20041;-78
2024/01/01 09:09:29;;;;;;;11.27;3.50;;;7.80;99.90;;;;;;5020231;28;20049;-79
2024/01/01 09:11:56;;;;;;;11.85;3.78;;;7.80;99.90;;;;;;5017271;28;20512;-77
2024/01/01 09:14:22;;;;;;;11.02;3.40;;;7.80;99.90;;;;;;5035264;28;20041;-79
2024/01/01 09:16:48;;;;;;;9.75;3.40;;;7.80;99.90;;;;;;5029678;28;20068;-76
2024/01/01 09:19:17;;;;;;;11.27;3.40;;;7.80;99.90;;;;;;5031700;28;20428;-78
2024/01/01 09:21:44;;;;;;;11.63;3.72;;;7.80;99.90;;;;;;5039399;28;20041;-77
2024/01/01 09:24:09;;;;;;;12.32;3.85;;;7.80;99.90;;;;;;5020623;28;20211;-77
2024/01/01 09:26:36;;;;;;;14.35;4.13;;;7.80;99.90;;;;;;5061692;28;20056;-77
2024/01/01 09:29:01;;;;;;;13.03;3.87;;;7.70;99.90;;;;;;5028657;28;20444;-78
2024/01/01 09:31:27;;;;;;;10.52;3.67;;;7.80;99.90;;;;;;5026302;28;20065;-77
2024/01/01 09:33:55;;;;;;;8.80;3.28;;;7.80;99.90;;;;;;5029910;28;20470;-78
2024/01/01 09:36:20;;;;;;;8.98;3.28;;;7.80;99.90;;;;;;5029866;28;20182;-79
2024/01/01 09:38:46;;;;;;;12.05;3.80;;;7.80;99.90;;;;;;5028694;28;20480;-78
2024/01/01 09:41:12;;;;;;;12.80;3.80;;;7.80;99.90;;;;;;5026176;28;20036;-79
2024/01/01 09:43:42;;;;;;;11.40;3.63;;;7.80;99.90;;;;;;5027919;28;20386;-78
2024/01/01 09:46:08;;;;;;;9.57;3.60;;;7.80;99.90;;;;;;5026302;28;20132;-78
2024/01/01 09:48:34;;;;;;;10.90;4.25;;;7.80;99.90;;;;;;5031463;28;20653;-78
2024/01/01 09:51:02;;;;;;;11.77;4.40;;;7.80;99.90;;;;;;5060954;28;20128;-85
2024/01/01 09:53:31;;;;;;;12.25;5.18;;;7.90;99.90;;;;;;5037440;28;20504;-79
2024/01/01 09:55:57;;;;;;;16.20;6.30;;;7.90;99.90;;;;;;5025598;28;20073;-79
2024/01/01 09:58:23;;;;;;;13.13;4.28;;;7.80;99.90;;;;;;5026555;28;20092;-78
2024/01/01 10:00:49;;;;;;;11.48;3.90;;;7.90;99.90;;;;;;5025611;28;20052;-77
2024/01/01 10:03:15;;;;;;;13.60;3.70;;;7.90;99.90;;;;;;5037152;28;20050;-76
2024/01/01 10:05:41;;;;;;;11.65;3.97;;;8.00;99.90;;;;;;5055462;28;20041;-75
2024/01/01 10:08:14;;;;;;;13.80;4.32;;;8.00;99.90;;;;;;5026346;28;20056;-75
2024/01/01 10:10:40;;;;;;;13.20;4.20;;;8.00;99.90;;;;;;5060396;28;20046;-75
2024/01/01 10:13:13;;;;;;;13.53;4.40;;;7.90;99.90;;;;;;5027363;28;20103;-75
2024/01/01 10:15:41;;;;;;;10.00;3.83;;;8.00;99.90;;;;;;5043799;28;20303;-75
2024/01/01 10:18:12;;;;;;;11.70;3.72;;;8.00;99.90;;;;;;5018386;28;20076;-76
2024/01/01 10:20:39;;;;;;;12.70;4.75;;;8.00;99.90;;;;;;5046769;28;20041;-75
2024/01/01 10:23:19;;;;;;;13.45;4.15;;;8.00;99.90;;;;;;5019644;28;20591;-77
2024/01/01 10:25:45;;;;;;;10.38;3.85;;;8.00;99.90;;;;;;5030698;28;20413;-77
2024/01/01 10:28:15;;;;;;;11.57;4.00;;;8.00;99.90;;;;;;5023144;28;20051;-77
2024/01/01 10:30:43;;;;;;;12.50;4.75;;;7.90;99.90;;;;;;5021933;28;20140;-78
2024/01/01 10:33:10;;;;;;;10.98;4.53;;;7.90;99.90;;;;;;5018487;28;20044;-77
2024/01/01 10:35:38;;;;;;;11.85;4.30;;;7.80;99.90;;;;;;5029050;28;20045;-75
2024/01/01 10:38:04;;;;;;;11.30;4.13;;;7.90;99.90;;;;;;5063338;28;20077;-77
2024/01/01 10:40:29;;;;;;;13.75;4.97;;;7.80;99.90;;;;;;5063123;28;20431;-80
2024/01/01 10:42:57;;;;;;;11.35;4.50;;;7.80;99.90;;;;;;5025334;28;20057;-77
2024/01/01 10:45:22;;;;;;;8.40;3.47;;;7.80;99.90;;;;;;5028703;28;20075;-78
2024/01/01 10:47:49;;;;;;;10.93;3.72;;;7.80;99.90;;;;;;5023503;28;20480;-78
2024/01/01 10:50:17;;;;;;;10.27;3.80;;;7.80;99.90;;;;;;5027308;28;20125;-75
2024/01/01 10:52:50;;;;;;;10.02;3.60;;;7.90;99.90;;;;;;5061261;28;20434;-74
2024/01/01 10:55:43;;;;;;;10.63;4.03;;;7.90;99.90;;;;;;5029472;28;20045;-75
2024/01/01 10:58:24;;;;;;;10.10;3.60;;;7.90;99.90;;;;;;5028784;28;20248;-76
2024/01/01 11:01:11;;;;;;;13.13;4.35;;;7.90;99.90;;;;;;5034739;28;20060;-75
2024/01/01 11:03:37;;;;;;;11.82;3.80;;;7.90;99.90;;;;;;5033267;28;20581;-77
2024/01/01 11:06:26;;;;;;;7.45;3.65;;;7.90;99.90;;;;;;5063353;28;20057;-77
2024/01/01 11:08:56;;;;;;;8.15;3.38;;;8.00;99.90;;;;;;5051833;28;20053;-78
2024/01/01 11:11:32;;;;;;;10.77;3.30;;;8.00;99.90;;;;;;5031260;28;20041;-76
2024/01/01 11:13:58;;;;;;;9.18;3.85;;;8.10;99.90;;;;;;5020789;28;20076;-79
2024/01/01 11:16:24;;;;;;;9.82;4.03;;;8.10;99.90;;;;;;5026372;28;20074;-74
2024/01/01 11:18:51;;;;;;;8.68;3.45;;;8.10;99.90;;;;;;5021910;28;20053;-79
2024/01/01 11:21:28;;;;;;;10.25;4.10;;;8.20;99.90;;;;;;5028564;28;20045;-78
2024/01/01 11:23:54;;;;;;;9.88;3.65;;;8.10;99.90;;;;;;5029217;28;20148;-87
2024/01/01 11:26:22;;;;;;;11.00;3.88;;;8.10;99.90;;;;;;5046916;28;20120;-84
2024/01/01 11:28:48;;;;;;;13.13;3.85;;;8.10;99.90;;;;;;5062640;28;20076;-77
2024/01/01 11:31:14;;;;;;;9.38;3.15;;;8.10;99.90;;;;;;5060048;28;20049;-80
2024/01/01 11:33:40;;;;;;;10.95;4.15;;;8.10;99.90;;;;;;5028566;28;20517;-80
2024/01/01 11:36:06;;;;;;;11.23;3.90;;;8.00;99.90;;;;;;5045530;28;20051;-84
2024/01/01 11:38:32;;;;;;;13.10;3.65;;;8.00;99.90;;;;;;5028126;28;20088;-82
2024/01/01 11:40:58;;;;;;;10.05;3.60;;;8.00;99.90;;;;;;5062964;28;20052;-80
2024/01/01 11:43:23;;;;;;;7.28;2.28;;;8.00;99.90;;;;;;5058643;28;20128;-82
2024/01/01 11:45:54;;;;;;;7.20;2.38;;;7.90;99.90;;;;;;5028541;28;20041;-79
2024/01/01 11:48:20;;;;;;;9.75;3.08;;;7.90;99.90;;;;;;5044887;28;20055;-78
2024/01/01 11:50:48;;;;;;;9.35;3.40;;;7.90;99.90;;;;;;5030144;28;20041;-79
2024/01/01 11:53:20;;;;;;;11.80;3.30;;;7.90;99.90;;;;;;5022525;28;20445;-78
2024/01/01 11:55:45;;;;;;;9.07;2.90;;;7.80;99.90;;;;;;5028369;28;20049;-82
2024/01/01 11:58:12;;;;;;;7.82;2.80;;;7.80;99.90;;;;;;5062207;28;20072;-76
2024/01/01 12:00:39;;;;;;;5.10;2.80;;;7.80;99.90;;;;;;5017876;28;20054;-79
2024/01/01 12:03:05;;;;;;;8.30;2.85;;;7.70;99.90;;;;;;5039274;28;20057;-78
2024/01/01 12:05:31;;;;;;;10.10;3.30;;;7.70;99.90;;;;;;5030267;28;20397;-79
2024/01/01 12:07:57;;;;;;;9.52;2.95;;;7.70;99.90;;;;;;5044014;28;20147;-80
2024/01/01 12:10:25;;;;;;;8.27;2.88;;;7.70;99.90;;;;;;5026918;28;20071;-78
2024/01/01 12:12:59;;;;;;;9.98;3.17;;;7.80;99.90;;;;;;5061446;28;20053;-83
2024/01/01 12:15:30;;;;;;;8.32;2.28;;;7.90;99.90;;;;;;5028113;28;20046;-79
2024/01/01 12:17:56;;;;;;;9.85;3.00;;;7.90;99.90;;;;;;5041611;28;20084;-79
2024/01/01 12:20:23;;;;;;;10.45;2.80;;;8.00;99.90;;;;;;5031019;28;20825;-78
2024/01/01 12:22:49;;;;;;;7.53;2.15;;;8.10;99.90;;;;;;5027951;28;20037;-79
2024/01/01 12:25:16;;;;;;;10.60;2.42;;;8.30;99.90;;;;;;5028977;28;20457;-81
2024/01/01 12:28:01;;;;;;;7.38;2.25;;;8.30;99.90;;;;;;5027456;28;20090;-77
2024/01/01 12:30:27;;;;;;;8.32;2.70;;;8.40;99.90;;;;;;5044549;28;20064;-78
2024/01/01 12:32:53;;;;;;;12.10;2.80;;;8.40;99.90;;;;;;5027466;28;20396;-81
2024/01/01 12:35:19;;;;;;;12.43;3.33;;;8.50;99.90;;;;;;5028263;28;20392;-80
2024/01/01 12:37:48;;;;;;;7.72;2.58;;;8.50;99.90;;;;;;5028064;28;20302;-77
2024/01/01 12:40:14;;;;;;;10.80;2.45;;;8.60;99.90;;;;;;5021640;28;20185;-79
2024/01/01 12:42:40;;;;;;;9.32;2.50;;;8.60;99.90;;;;;;5024896;28;20154;-79
2024/01/01 12:45:06;;;;;;;12.45;2.50;;;8.60;99.90;;;;;;5045165;28;20643;-77